sensor_id;sensor_type;location;lat;lon;timestamp;temperature;humidity
44461;DHT22;30162;53.642;10.640;2022-11-12T00:00:36;13.70;91.50
44461;DHT22;30162;53.642;10.640;2022-11-12T00:03:02;13.60;91.70
44461;DHT22;30162;53.642;10.640;2022-11-12T00:05:28;13.40;91.90
44461;DHT22;30162;53.642;10.640;2022-11-12T00:07:53;13.30;92.10
44461;DHT22;30162;53.642;10.640;2022-11-12T00:10:19;13.30;92.20
44461;DHT22;30162;53.642;10.640;2022-11-12T00:12:44;13.20;92.10
44461;DHT22;30162;53.642;10.640;2022-11-12T00:15:10;13.20;92.20
44461;DHT22;30162;53.642;10.640;2022-11-12T00:17:36;13.00;92.30
44461;DHT22;30162;53.642;10.640;2022-11-12T00:20:03;13.20;92.30
44461;DHT22;30162;53.642;10.640;2022-11-12T00:22:28;13.20;92.30
44461;DHT22;30162;53.642;10.640;2022-11-12T00:24:54;13.30;92.10
44461;DHT22;30162;53.642;10.640;2022-11-12T00:27:20;13.00;92.60
44461;DHT22;30162;53.642;10.640;2022-11-12T00:29:45;13.10;92.70
44461;DHT22;30162;53.642;10.640;2022-11-12T00:32:11;13.40;92.40
44461;DHT22;30162;53.642;10.640;2022-11-12T00:34:36;13.40;92.30
44461;DHT22;30162;53.642;10.640;2022-11-12T00:37:02;13.50;92.20
44461;DHT22;30162;53.642;10.640;2022-11-12T00:39:28;13.60;92.00
44461;DHT22;30162;53.642;10.640;2022-11-12T00:41:54;13.30;92.20
44461;DHT22;30162;53.642;10.640;2022-11-12T00:44:20;13.40;92.30
44461;DHT22;30162;53.642;10.640;2022-11-12T00:46:45;13.40;92.20
44461;DHT22;30162;53.642;10.640;2022-11-12T00:49:11;13.50;92.40
44461;DHT22;30162;53.642;10.640;2022-11-12T00:51:37;13.60;92.30
44461;DHT22;30162;53.642;10.640;2022-11-12T00:54:03;13.60;92.20
44461;DHT22;30162;53.642;10.640;2022-11-12T00:56:30;13.60;92.10
44461;DHT22;30162;53.642;10.640;2022-11-12T00:58:57;13.70;92.00
44461;DHT22;30162;53.642;10.640;2022-11-12T01:01:23;13.60;91.90
44461;DHT22;30162;53.642;10.640;2022-11-12T01:03:48;13.50;91.90
44461;DHT22;30162;53.642;10.640;2022-11-12T01:06:19;13.70;91.90
44461;DHT22;30162;53.642;10.640;2022-11-12T01:08:45;13.70;91.80
44461;DHT22;30162;53.642;10.640;2022-11-12T01:11:13;13.70;91.90
44461;DHT22;30162;53.642;10.640;2022-11-12T01:13:41;13.70;91.70
44461;DHT22;30162;53.642;10.640;2022-11-12T01:16:09;13.80;91.60
44461;DHT22;30162;53.642;10.640;2022-11-12T01:18:35;13.60;91.90
44461;DHT22;30162;53.642;10.640;2022-11-12T01:21:02;13.60;92.10
44461;DHT22;30162;53.642;10.640;2022-11-12T01:23:28;13.60;92.00
44461;DHT22;30162;53.642;10.640;2022-11-12T01:25:53;13.70;92.10
44461;DHT22;30162;53.642;10.640;2022-11-12T01:28:19;13.70;92.00
44461;DHT22;30162;53.642;10.640;2022-11-12T01:30:44;13.70;91.90
44461;DHT22;30162;53.642;10.640;2022-11-12T01:33:10;13.70;91.90
44461;DHT22;30162;53.642;10.640;2022-11-12T01:35:35;13.70;92.00
44461;DHT22;30162;53.642;10.640;2022-11-12T01:38:01;13.80;91.80
44461;DHT22;30162;53.642;10.640;2022-11-12T01:40:27;13.80;91.90
44461;DHT22;30162;53.642;10.640;2022-11-12T01:42:53;13.80;91.90
44461;DHT22;30162;53.642;10.640;2022-11-12T01:45:19;13.80;91.90
44461;DHT22;30162;53.642;10.640;2022-11-12T01:47:46;13.80;91.90
44461;DHT22;30162;53.642;10.640;2022-11-12T01:50:22;13.90;91.90
44461;DHT22;30162;53.642;10.640;2022-11-12T01:52:53;13.80;91.70
44461;DHT22;30162;53.642;10.640;2022-11-12T01:55:24;13.80;91.90
44461;DHT22;30162;53.642;10.640;2022-11-12T01:57:58;13.80;91.90
44461;DHT22;30162;53.642;10.640;2022-11-12T02:00:24;13.80;92.10
44461;DHT22;30162;53.642;10.640;2022-11-12T02:02:56;13.80;92.10
44461;DHT22;30162;53.642;10.640;2022-11-12T02:05:23;13.70;92.00
44461;DHT22;30162;53.642;10.640;2022-11-12T02:07:50;13.70;92.00
44461;DHT22;30162;53.642;10.640;2022-11-12T02:10:16;13.70;92.00
44461;DHT22;30162;53.642;10.640;2022-11-12T02:12:43;13.50;91.80
44461;DHT22;30162;53.642;10.640;2022-11-12T02:15:28;13.40;92.00
44461;DHT22;30162;53.642;10.640;2022-11-12T02:17:53;13.30;91.90
44461;DHT22;30162;53.642;10.640;2022-11-12T02:20:19;13.10;92.10
44461;DHT22;30162;53.642;10.640;2022-11-12T02:22:45;13.10;92.10
44461;DHT22;30162;53.642;10.640;2022-11-12T02:25:17;12.90;91.90
44461;DHT22;30162;53.642;10.640;2022-11-12T02:27:44;13.00;91.90
44461;DHT22;30162;53.642;10.640;2022-11-12T02:30:10;13.00;91.50
44461;DHT22;30162;53.642;10.640;2022-11-12T02:32:36;12.80;91.80
44461;DHT22;30162;53.642;10.640;2022-11-12T02:35:02;12.70;91.90
44461;DHT22;30162;53.642;10.640;2022-11-12T02:37:27;12.60;91.60
44461;DHT22;30162;53.642;10.640;2022-11-12T02:39:53;12.60;92.00
44461;DHT22;30162;53.642;10.640;2022-11-12T02:42:18;12.40;92.10
44461;DHT22;30162;53.642;10.640;2022-11-12T02:44:44;12.30;92.50
44461;DHT22;30162;53.642;10.640;2022-11-12T02:47:09;12.40;92.80
44461;DHT22;30162;53.642;10.640;2022-11-12T02:49:35;12.50;92.70
44461;DHT22;30162;53.642;10.640;2022-11-12T02:52:00;12.50;92.80
44461;DHT22;30162;53.642;10.640;2022-11-12T02:54:26;12.70;92.60
44461;DHT22;30162;53.642;10.640;2022-11-12T02:56:51;12.60;92.30
44461;DHT22;30162;53.642;10.640;2022-11-12T02:59:17;12.60;92.60
44461;DHT22;30162;53.642;10.640;2022-11-12T03:01:42;12.60;92.40
44461;DHT22;30162;53.642;10.640;2022-11-12T03:04:08;12.60;92.70
44461;DHT22;30162;53.642;10.640;2022-11-12T03:06:33;12.60;92.60
44461;DHT22;30162;53.642;10.640;2022-11-12T03:08:59;12.60;92.70
44461;DHT22;30162;53.642;10.640;2022-11-12T03:11:24;12.60;92.70
44461;DHT22;30162;53.642;10.640;2022-11-12T03:13:51;12.60;92.90
44461;DHT22;30162;53.642;10.640;2022-11-12T03:16:17;12.60;92.80
44461;DHT22;30162;53.642;10.640;2022-11-12T03:18:42;12.60;92.80
44461;DHT22;30162;53.642;10.640;2022-11-12T03:21:08;12.70;92.60
44461;DHT22;30162;53.642;10.640;2022-11-12T03:23:33;12.70;92.60
44461;DHT22;30162;53.642;10.640;2022-11-12T03:26:01;12.80;92.30
44461;DHT22;30162;53.642;10.640;2022-11-12T03:28:28;12.70;92.40
44461;DHT22;30162;53.642;10.640;2022-11-12T03:30:56;12.70;92.10
44461;DHT22;30162;53.642;10.640;2022-11-12T03:33:22;12.60;92.30
44461;DHT22;30162;53.642;10.640;2022-11-12T03:35:47;12.50;92.30
44461;DHT22;30162;53.642;10.640;2022-11-12T03:38:13;12.40;92.20
44461;DHT22;30162;53.642;10.640;2022-11-12T03:40:38;12.40;92.50
44461;DHT22;30162;53.642;10.640;2022-11-12T03:43:04;12.40;92.20
44461;DHT22;30162;53.642;10.640;2022-11-12T03:45:29;12.50;92.10
44461;DHT22;30162;53.642;10.640;2022-11-12T03:47:56;12.30;91.90
44461;DHT22;30162;53.642;10.640;2022-11-12T03:50:25;12.30;92.10
44461;DHT22;30162;53.642;10.640;2022-11-12T03:52:53;12.40;92.10
44461;DHT22;30162;53.642;10.640;2022-11-12T03:55:20;12.40;92.20
44461;DHT22;30162;53.642;10.640;2022-11-12T03:57:47;12.40;91.90
44461;DHT22;30162;53.642;10.640;2022-11-12T04:00:14;12.30;91.90
44461;DHT22;30162;53.642;10.640;2022-11-12T04:02:40;12.10;91.90
44461;DHT22;30162;53.642;10.640;2022-11-12T04:05:06;12.10;92.10
44461;DHT22;30162;53.642;10.640;2022-11-12T04:08:03;12.10;92.20
44461;DHT22;30162;53.642;10.640;2022-11-12T04:10:48;12.10;92.10
44461;DHT22;30162;53.642;10.640;2022-11-12T04:13:13;11.90;91.80
44461;DHT22;30162;53.642;10.640;2022-11-12T04:18:38;11.50;92.70
44461;DHT22;30162;53.642;10.640;2022-11-12T04:21:32;11.50;92.20
44461;DHT22;30162;53.642;10.640;2022-11-12T04:24:39;11.40;92.50
44461;DHT22;30162;53.642;10.640;2022-11-12T04:27:32;11.30;92.20
44461;DHT22;30162;53.642;10.640;2022-11-12T04:29:58;11.30;92.20
44461;DHT22;30162;53.642;10.640;2022-11-12T04:32:51;11.30;92.20
44461;DHT22;30162;53.642;10.640;2022-11-12T04:35:22;11.50;91.90
44461;DHT22;30162;53.642;10.640;2022-11-12T04:37:48;11.30;91.80
44461;DHT22;30162;53.642;10.640;2022-11-12T04:40:14;11.20;92.00
44461;DHT22;30162;53.642;10.640;2022-11-12T04:43:00;11.10;91.90
44461;DHT22;30162;53.642;10.640;2022-11-12T04:45:46;11.00;92.00
44461;DHT22;30162;53.642;10.640;2022-11-12T04:48:12;11.00;92.00
44461;DHT22;30162;53.642;10.640;2022-11-12T04:50:38;10.90;91.70
44461;DHT22;30162;53.642;10.640;2022-11-12T04:53:04;10.90;92.20
44461;DHT22;30162;53.642;10.640;2022-11-12T04:55:31;10.90;92.00
44461;DHT22;30162;53.642;10.640;2022-11-12T04:57:56;10.70;91.50
44461;DHT22;30162;53.642;10.640;2022-11-12T05:00:22;10.60;92.10
44461;DHT22;30162;53.642;10.640;2022-11-12T05:02:49;10.70;91.80
44461;DHT22;30162;53.642;10.640;2022-11-12T05:05:14;10.60;92.00
44461;DHT22;30162;53.642;10.640;2022-11-12T05:07:40;10.60;92.00
44461;DHT22;30162;53.642;10.640;2022-11-12T05:10:06;10.70;91.90
44461;DHT22;30162;53.642;10.640;2022-11-12T05:12:32;10.50;91.60
44461;DHT22;30162;53.642;10.640;2022-11-12T05:14:57;10.20;92.00
44461;DHT22;30162;53.642;10.640;2022-11-12T05:17:23;10.20;92.50
44461;DHT22;30162;53.642;10.640;2022-11-12T05:19:48;10.20;92.50
44461;DHT22;30162;53.642;10.640;2022-11-12T05:22:14;10.20;92.30
44461;DHT22;30162;53.642;10.640;2022-11-12T05:24:41;10.10;92.30
44461;DHT22;30162;53.642;10.640;2022-11-12T05:27:12;10.00;92.60
44461;DHT22;30162;53.642;10.640;2022-11-12T05:29:38;10.00;92.60
44461;DHT22;30162;53.642;10.640;2022-11-12T05:32:06;10.10;92.60
44461;DHT22;30162;53.642;10.640;2022-11-12T05:34:32;10.00;92.10
44461;DHT22;30162;53.642;10.640;2022-11-12T05:39:24;10.10;92.40
44461;DHT22;30162;53.642;10.640;2022-11-12T05:41:50;10.20;92.40
44461;DHT22;30162;53.642;10.640;2022-11-12T05:44:16;10.10;92.40
44461;DHT22;30162;53.642;10.640;2022-11-12T05:46:41;10.10;92.70
44461;DHT22;30162;53.642;10.640;2022-11-12T05:49:07;10.20;92.80
44461;DHT22;30162;53.642;10.640;2022-11-12T05:51:33;10.20;92.40
44461;DHT22;30162;53.642;10.640;2022-11-12T05:54:00;10.30;92.40
44461;DHT22;30162;53.642;10.640;2022-11-12T05:56:25;10.10;92.60
44461;DHT22;30162;53.642;10.640;2022-11-12T05:58:51;10.20;92.80
44461;DHT22;30162;53.642;10.640;2022-11-12T06:01:17;10.10;92.40
44461;DHT22;30162;53.642;10.640;2022-11-12T06:03:42;10.10;92.30
44461;DHT22;30162;53.642;10.640;2022-11-12T06:06:08;10.00;92.40
44461;DHT22;30162;53.642;10.640;2022-11-12T06:08:34;10.00;92.50
44461;DHT22;30162;53.642;10.640;2022-11-12T06:11:00;10.00;92.60
44461;DHT22;30162;53.642;10.640;2022-11-12T06:13:26;9.90;92.50
44461;DHT22;30162;53.642;10.640;2022-11-12T06:15:52;9.90;92.40
44461;DHT22;30162;53.642;10.640;2022-11-12T06:18:18;9.80;92.50
44461;DHT22;30162;53.642;10.640;2022-11-12T06:20:44;9.70;92.30
44461;DHT22;30162;53.642;10.640;2022-11-12T06:23:09;9.60;92.50
44461;DHT22;30162;53.642;10.640;2022-11-12T06:25:35;9.60;92.90
44461;DHT22;30162;53.642;10.640;2022-11-12T06:28:01;9.50;92.60
44461;DHT22;30162;53.642;10.640;2022-11-12T06:30:26;9.50;92.80
44461;DHT22;30162;53.642;10.640;2022-11-12T06:32:52;9.40;92.90
44461;DHT22;30162;53.642;10.640;2022-11-12T06:35:18;9.50;92.80
44461;DHT22;30162;53.642;10.640;2022-11-12T06:37:47;9.60;92.80
44461;DHT22;30162;53.642;10.640;2022-11-12T06:40:13;9.50;92.40
44461;DHT22;30162;53.642;10.640;2022-11-12T06:42:39;9.40;92.60
44461;DHT22;30162;53.642;10.640;2022-11-12T06:45:06;9.30;92.80
44461;DHT22;30162;53.642;10.640;2022-11-12T06:47:31;9.40;93.00
44461;DHT22;30162;53.642;10.640;2022-11-12T06:49:57;9.40;92.90
44461;DHT22;30162;53.642;10.640;2022-11-12T06:52:22;9.50;92.70
44461;DHT22;30162;53.642;10.640;2022-11-12T06:54:48;9.30;92.90
44461;DHT22;30162;53.642;10.640;2022-11-12T06:57:13;9.40;93.20
44461;DHT22;30162;53.642;10.640;2022-11-12T06:59:39;9.50;93.10
44461;DHT22;30162;53.642;10.640;2022-11-12T07:02:05;9.60;92.90
44461;DHT22;30162;53.642;10.640;2022-11-12T07:04:30;9.50;92.70
44461;DHT22;30162;53.642;10.640;2022-11-12T07:06:56;9.30;93.00
44461;DHT22;30162;53.642;10.640;2022-11-12T07:09:21;9.20;93.30
44461;DHT22;30162;53.642;10.640;2022-11-12T07:11:47;9.30;93.40
44461;DHT22;30162;53.642;10.640;2022-11-12T07:14:12;9.30;93.20
44461;DHT22;30162;53.642;10.640;2022-11-12T07:16:39;9.30;93.20
44461;DHT22;30162;53.642;10.640;2022-11-12T07:19:04;9.40;93.30
44461;DHT22;30162;53.642;10.640;2022-11-12T07:21:30;9.40;92.80
44461;DHT22;30162;53.642;10.640;2022-11-12T07:23:55;9.30;92.90
44461;DHT22;30162;53.642;10.640;2022-11-12T07:26:23;9.30;93.00
44461;DHT22;30162;53.642;10.640;2022-11-12T07:28:51;9.40;93.20
44461;DHT22;30162;53.642;10.640;2022-11-12T07:31:18;9.40;93.00
44461;DHT22;30162;53.642;10.640;2022-11-12T07:33:45;9.30;93.00
44461;DHT22;30162;53.642;10.640;2022-11-12T07:36:17;9.30;93.40
44461;DHT22;30162;53.642;10.640;2022-11-12T07:38:43;9.30;93.00
44461;DHT22;30162;53.642;10.640;2022-11-12T07:41:11;9.30;93.00
44461;DHT22;30162;53.642;10.640;2022-11-12T07:43:38;9.30;93.10
44461;DHT22;30162;53.642;10.640;2022-11-12T07:46:10;9.30;93.10
44461;DHT22;30162;53.642;10.640;2022-11-12T07:48:36;9.50;93.10
44461;DHT22;30162;53.642;10.640;2022-11-12T07:51:10;9.50;93.00
44461;DHT22;30162;53.642;10.640;2022-11-12T07:53:36;9.50;93.00
44461;DHT22;30162;53.642;10.640;2022-11-12T07:56:02;9.50;92.80
44461;DHT22;30162;53.642;10.640;2022-11-12T07:58:32;9.60;92.80
44461;DHT22;30162;53.642;10.640;2022-11-12T08:03:33;9.70;92.20
44461;DHT22;30162;53.642;10.640;2022-11-12T08:05:59;9.30;92.70
44461;DHT22;30162;53.642;10.640;2022-11-12T08:08:25;9.40;93.10
44461;DHT22;30162;53.642;10.640;2022-11-12T08:10:55;9.50;93.30
44461;DHT22;30162;53.642;10.640;2022-11-12T08:13:21;9.60;92.80
44461;DHT22;30162;53.642;10.640;2022-11-12T08:15:46;9.60;92.60
44461;DHT22;30162;53.642;10.640;2022-11-12T08:18:12;9.40;93.30
44461;DHT22;30162;53.642;10.640;2022-11-12T08:20:38;9.50;93.20
44461;DHT22;30162;53.642;10.640;2022-11-12T08:23:03;9.70;93.30
44461;DHT22;30162;53.642;10.640;2022-11-12T08:25:29;9.90;93.10
44461;DHT22;30162;53.642;10.640;2022-11-12T08:27:56;10.00;92.90
44461;DHT22;30162;53.642;10.640;2022-11-12T08:30:22;10.00;92.70
44461;DHT22;30162;53.642;10.640;2022-11-12T08:32:57;10.00;93.00
44461;DHT22;30162;53.642;10.640;2022-11-12T08:35:24;10.30;93.40
44461;DHT22;30162;53.642;10.640;2022-11-12T08:37:50;11.20;92.80
44461;DHT22;30162;53.642;10.640;2022-11-12T08:40:16;11.80;90.50
44461;DHT22;30162;53.642;10.640;2022-11-12T08:42:42;11.90;90.20
44461;DHT22;30162;53.642;10.640;2022-11-12T08:45:07;11.90;90.20
44461;DHT22;30162;53.642;10.640;2022-11-12T08:47:33;11.70;90.40
44461;DHT22;30162;53.642;10.640;2022-11-12T08:49:58;11.60;90.60
44461;DHT22;30162;53.642;10.640;2022-11-12T08:52:24;11.50;90.80
44461;DHT22;30162;53.642;10.640;2022-11-12T08:54:49;11.60;91.10
44461;DHT22;30162;53.642;10.640;2022-11-12T08:57:15;11.90;90.50
44461;DHT22;30162;53.642;10.640;2022-11-12T08:59:41;12.40;90.20
44461;DHT22;30162;53.642;10.640;2022-11-12T09:02:11;12.40;89.50
44461;DHT22;30162;53.642;10.640;2022-11-12T09:04:37;12.50;89.80
44461;DHT22;30162;53.642;10.640;2022-11-12T09:07:02;12.70;90.00
44461;DHT22;30162;53.642;10.640;2022-11-12T09:09:28;13.10;89.70
44461;DHT22;30162;53.642;10.640;2022-11-12T09:11:53;13.70;87.40
44461;DHT22;30162;53.642;10.640;2022-11-12T09:14:19;14.30;85.60
44461;DHT22;30162;53.642;10.640;2022-11-12T09:16:44;14.30;84.90
44461;DHT22;30162;53.642;10.640;2022-11-12T09:19:10;13.80;86.20
44461;DHT22;30162;53.642;10.640;2022-11-12T09:21:35;13.40;87.70
44461;DHT22;30162;53.642;10.640;2022-11-12T09:24:01;13.10;89.00
44461;DHT22;30162;53.642;10.640;2022-11-12T09:26:27;12.80;89.60
44461;DHT22;30162;53.642;10.640;2022-11-12T09:28:52;12.60;90.60
44461;DHT22;30162;53.642;10.640;2022-11-12T09:31:19;12.50;90.50
44461;DHT22;30162;53.642;10.640;2022-11-12T09:33:44;12.70;90.80
44461;DHT22;30162;53.642;10.640;2022-11-12T09:36:10;12.70;90.30
44461;DHT22;30162;53.642;10.640;2022-11-12T09:38:36;12.70;90.40
44461;DHT22;30162;53.642;10.640;2022-11-12T09:41:09;12.70;90.80
44461;DHT22;30162;53.642;10.640;2022-11-12T09:43:42;12.90;90.80
44461;DHT22;30162;53.642;10.640;2022-11-12T09:49:39;12.70;91.30
44461;DHT22;30162;53.642;10.640;2022-11-12T09:51:55;12.80;91.10
44461;DHT22;30162;53.642;10.640;2022-11-12T09:54:34;12.90;91.10
44461;DHT22;30162;53.642;10.640;2022-11-12T09:57:00;12.90;91.10
44461;DHT22;30162;53.642;10.640;2022-11-12T09:59:30;12.90;90.80
44461;DHT22;30162;53.642;10.640;2022-11-12T10:08:01;13.00;91.40
44461;DHT22;30162;53.642;10.640;2022-11-12T10:10:47;13.10;91.20
44461;DHT22;30162;53.642;10.640;2022-11-12T10:18:56;13.20;91.00
44461;DHT22;30162;53.642;10.640;2022-11-12T10:21:57;13.20;91.00
44461;DHT22;30162;53.642;10.640;2022-11-12T10:24:34;13.10;91.10
44461;DHT22;30162;53.642;10.640;2022-11-12T10:27:10;13.10;91.20
44461;DHT22;30162;53.642;10.640;2022-11-12T10:29:49;13.20;91.30
44461;DHT22;30162;53.642;10.640;2022-11-12T10:32:16;13.30;91.30
44461;DHT22;30162;53.642;10.640;2022-11-12T10:34:42;13.50;91.10
44461;DHT22;30162;53.642;10.640;2022-11-12T10:37:28;13.70;90.40
44461;DHT22;30162;53.642;10.640;2022-11-12T10:39:58;13.50;91.20
44461;DHT22;30162;53.642;10.640;2022-11-12T10:42:23;13.50;90.30
44461;DHT22;30162;53.642;10.640;2022-11-12T10:44:49;13.70;90.10
44461;DHT22;30162;53.642;10.640;2022-11-12T10:47:20;13.80;90.10
44461;DHT22;30162;53.642;10.640;2022-11-12T10:53:05;13.90;90.20
44461;DHT22;30162;53.642;10.640;2022-11-12T10:55:36;14.10;90.10
44461;DHT22;30162;53.642;10.640;2022-11-12T10:58:15;14.00;90.10
44461;DHT22;30162;53.642;10.640;2022-11-12T11:00:59;14.10;89.50
44461;DHT22;30162;53.642;10.640;2022-11-12T11:03:28;14.10;90.00
44461;DHT22;30162;53.642;10.640;2022-11-12T11:08:36;14.30;89.20
44461;DHT22;30162;53.642;10.640;2022-11-12T11:13:44;14.20;89.50
44461;DHT22;30162;53.642;10.640;2022-11-12T11:16:16;14.00;88.70
44461;DHT22;30162;53.642;10.640;2022-11-12T11:18:46;14.30;88.90
44461;DHT22;30162;53.642;10.640;2022-11-12T11:21:29;14.50;89.10
44461;DHT22;30162;53.642;10.640;2022-11-12T11:29:40;15.50;87.30
44461;DHT22;30162;53.642;10.640;2022-11-12T11:38:22;15.80;85.60
44461;DHT22;30162;53.642;10.640;2022-11-12T11:44:06;15.60;85.60
44461;DHT22;30162;53.642;10.640;2022-11-12T11:49:37;15.80;85.40
44461;DHT22;30162;53.642;10.640;2022-11-12T11:52:25;15.90;85.60
44461;DHT22;30162;53.642;10.640;2022-11-12T11:55:07;15.90;85.80
44461;DHT22;30162;53.642;10.640;2022-11-12T12:06:09;15.50;86.70
44461;DHT22;30162;53.642;10.640;2022-11-12T12:14:29;15.70;86.70
44461;DHT22;30162;53.642;10.640;2022-11-12T12:17:25;15.60;86.50
44461;DHT22;30162;53.642;10.640;2022-11-12T12:22:36;15.30;87.30
44461;DHT22;30162;53.642;10.640;2022-11-12T12:25:08;15.30;87.50
44461;DHT22;30162;53.642;10.640;2022-11-12T12:27:40;15.50;87.30
44461;DHT22;30162;53.642;10.640;2022-11-12T12:30:21;15.40;87.60
44461;DHT22;30162;53.642;10.640;2022-11-12T12:33:26;15.30;88.20
44461;DHT22;30162;53.642;10.640;2022-11-12T12:36:00;15.10;88.80
44461;DHT22;30162;53.642;10.640;2022-11-12T12:38:34;15.00;89.20
44461;DHT22;30162;53.642;10.640;2022-11-12T12:41:11;14.90;89.80
44461;DHT22;30162;53.642;10.640;2022-11-12T12:43:49;14.90;89.70
44461;DHT22;30162;53.642;10.640;2022-11-12T12:46:20;14.90;89.80
44461;DHT22;30162;53.642;10.640;2022-11-12T12:48:47;14.80;89.80
44461;DHT22;30162;53.642;10.640;2022-11-12T12:51:16;14.80;90.00
44461;DHT22;30162;53.642;10.640;2022-11-12T12:53:42;14.80;90.10
44461;DHT22;30162;53.642;10.640;2022-11-12T13:01:27;14.70;90.20
44461;DHT22;30162;53.642;10.640;2022-11-12T13:04:04;14.70;90.20
44461;DHT22;30162;53.642;10.640;2022-11-12T13:17:08;14.50;90.70
44461;DHT22;30162;53.642;10.640;2022-11-12T13:43:02;15.00;90.50
44461;DHT22;30162;53.642;10.640;2022-11-12T13:45:29;15.10;90.40
44461;DHT22;30162;53.642;10.640;2022-11-12T13:47:57;15.10;90.50
44461;DHT22;30162;53.642;10.640;2022-11-12T13:50:23;15.10;90.70
44461;DHT22;30162;53.642;10.640;2022-11-12T13:52:49;15.20;90.40
44461;DHT22;30162;53.642;10.640;2022-11-12T13:55:19;15.10;90.70
44461;DHT22;30162;53.642;10.640;2022-11-12T13:57:50;15.10;90.80
44461;DHT22;30162;53.642;10.640;2022-11-12T14:02:51;15.10;90.80
44461;DHT22;30162;53.642;10.640;2022-11-12T14:05:27;15.00;90.80
44461;DHT22;30162;53.642;10.640;2022-11-12T14:13:39;15.00;90.30
44461;DHT22;30162;53.642;10.640;2022-11-12T14:16:13;14.90;90.50
44461;DHT22;30162;53.642;10.640;2022-11-12T14:21:25;14.70;90.50
44461;DHT22;30162;53.642;10.640;2022-11-12T14:23:51;14.60;90.60
44461;DHT22;30162;53.642;10.640;2022-11-12T14:26:35;14.70;90.60
44461;DHT22;30162;53.642;10.640;2022-11-12T14:29:01;14.60;90.40
44461;DHT22;30162;53.642;10.640;2022-11-12T14:31:26;14.50;90.70
44461;DHT22;30162;53.642;10.640;2022-11-12T14:33:52;14.30;90.60
44461;DHT22;30162;53.642;10.640;2022-11-12T14:36:18;14.40;90.70
44461;DHT22;30162;53.642;10.640;2022-11-12T14:38:50;14.30;90.80
44461;DHT22;30162;53.642;10.640;2022-11-12T14:41:28;14.30;90.70
44461;DHT22;30162;53.642;10.640;2022-11-12T14:43:58;14.30;90.60
44461;DHT22;30162;53.642;10.640;2022-11-12T14:49:02;14.20;90.50
44461;DHT22;30162;53.642;10.640;2022-11-12T14:51:29;14.20;90.40
44461;DHT22;30162;53.642;10.640;2022-11-12T14:53:59;14.20;90.30
44461;DHT22;30162;53.642;10.640;2022-11-12T14:56:46;14.20;90.20
44461;DHT22;30162;53.642;10.640;2022-11-12T14:59:14;14.00;90.30
44461;DHT22;30162;53.642;10.640;2022-11-12T15:04:40;13.70;90.60
44461;DHT22;30162;53.642;10.640;2022-11-12T15:07:22;13.40;90.90
44461;DHT22;30162;53.642;10.640;2022-11-12T15:09:47;13.40;91.10
44461;DHT22;30162;53.642;10.640;2022-11-12T15:12:22;13.30;91.00
44461;DHT22;30162;53.642;10.640;2022-11-12T15:14:50;13.20;91.00
44461;DHT22;30162;53.642;10.640;2022-11-12T15:17:33;13.20;90.90
44461;DHT22;30162;53.642;10.640;2022-11-12T15:20:05;12.90;91.20
44461;DHT22;30162;53.642;10.640;2022-11-12T15:22:37;12.90;91.40
44461;DHT22;30162;53.642;10.640;2022-11-12T15:25:23;12.80;91.40
44461;DHT22;30162;53.642;10.640;2022-11-12T15:27:49;12.80;91.40
44461;DHT22;30162;53.642;10.640;2022-11-12T15:33:34;12.90;91.50
44461;DHT22;30162;53.642;10.640;2022-11-12T15:35:36;12.90;91.30
44461;DHT22;30162;53.642;10.640;2022-11-12T15:38:23;12.70;91.30
44461;DHT22;30162;53.642;10.640;2022-11-12T15:40:53;12.50;91.60
44461;DHT22;30162;53.642;10.640;2022-11-12T15:43:25;12.40;91.60
44461;DHT22;30162;53.642;10.640;2022-11-12T15:45:52;12.50;91.50
44461;DHT22;30162;53.642;10.640;2022-11-12T15:48:19;12.40;91.80
44461;DHT22;30162;53.642;10.640;2022-11-12T15:50:45;12.50;91.40
44461;DHT22;30162;53.642;10.640;2022-11-12T15:53:11;12.30;91.50
44461;DHT22;30162;53.642;10.640;2022-11-12T15:55:38;12.20;91.80
44461;DHT22;30162;53.642;10.640;2022-11-12T15:58:06;12.20;92.00
44461;DHT22;30162;53.642;10.640;2022-11-12T16:00:37;12.20;91.80
44461;DHT22;30162;53.642;10.640;2022-11-12T16:05:37;12.40;91.70
44461;DHT22;30162;53.642;10.640;2022-11-12T16:08:03;12.40;91.60
44461;DHT22;30162;53.642;10.640;2022-11-12T16:10:29;12.40;91.60
44461;DHT22;30162;53.642;10.640;2022-11-12T16:12:58;12.30;91.70
44461;DHT22;30162;53.642;10.640;2022-11-12T16:15:24;12.20;91.50
44461;DHT22;30162;53.642;10.640;2022-11-12T16:17:51;12.10;91.70
44461;DHT22;30162;53.642;10.640;2022-11-12T16:20:37;12.00;91.80
44461;DHT22;30162;53.642;10.640;2022-11-12T16:23:03;12.10;91.70
44461;DHT22;30162;53.642;10.640;2022-11-12T16:25:31;12.10;91.90
44461;DHT22;30162;53.642;10.640;2022-11-12T16:27:57;12.10;91.70
44461;DHT22;30162;53.642;10.640;2022-11-12T16:30:27;12.00;91.60
44461;DHT22;30162;53.642;10.640;2022-11-12T16:32:54;11.90;92.00
44461;DHT22;30162;53.642;10.640;2022-11-12T16:35:20;11.90;91.80
44461;DHT22;30162;53.642;10.640;2022-11-12T16:37:46;11.80;91.70
44461;DHT22;30162;53.642;10.640;2022-11-12T16:40:17;11.80;91.70
44461;DHT22;30162;53.642;10.640;2022-11-12T16:42:43;11.70;91.60
44461;DHT22;30162;53.642;10.640;2022-11-12T16:45:16;11.80;91.80
44461;DHT22;30162;53.642;10.640;2022-11-12T16:47:46;11.70;91.80
44461;DHT22;30162;53.642;10.640;2022-11-12T16:50:14;11.60;91.90
44461;DHT22;30162;53.642;10.640;2022-11-12T16:52:41;11.60;91.70
44461;DHT22;30162;53.642;10.640;2022-11-12T16:55:07;11.70;91.80
44461;DHT22;30162;53.642;10.640;2022-11-12T16:57:33;11.80;91.50
44461;DHT22;30162;53.642;10.640;2022-11-12T16:59:58;11.70;91.30
44461;DHT22;30162;53.642;10.640;2022-11-12T17:02:24;11.50;91.40
44461;DHT22;30162;53.642;10.640;2022-11-12T17:04:50;11.60;91.70
44461;DHT22;30162;53.642;10.640;2022-11-12T17:07:15;11.60;91.40
44461;DHT22;30162;53.642;10.640;2022-11-12T17:09:41;11.40;91.50
44461;DHT22;30162;53.642;10.640;2022-11-12T17:12:07;11.30;91.70
44461;DHT22;30162;53.642;10.640;2022-11-12T17:14:33;11.30;91.70
44461;DHT22;30162;53.642;10.640;2022-11-12T17:16:59;11.20;91.80
44461;DHT22;30162;53.642;10.640;2022-11-12T17:19:24;11.20;91.80
44461;DHT22;30162;53.642;10.640;2022-11-12T17:21:50;11.00;91.80
44461;DHT22;30162;53.642;10.640;2022-11-12T17:24:16;11.00;92.00
44461;DHT22;30162;53.642;10.640;2022-11-12T17:26:41;11.00;92.10
44461;DHT22;30162;53.642;10.640;2022-11-12T17:29:07;10.90;92.20
44461;DHT22;30162;53.642;10.640;2022-11-12T17:31:33;10.90;92.00
44461;DHT22;30162;53.642;10.640;2022-11-12T17:33:58;10.90;92.30